createdAt,value
2023-02-27T00:01:50.173Z,6.30
2023-02-27T00:04:17.719Z,5.00
2023-02-27T00:06:45.262Z,5.00
2023-02-27T00:09:12.794Z,4.90
2023-02-27T00:11:40.563Z,5.10
2023-02-27T00:14:08.114Z,5.70
2023-02-27T00:16:35.655Z,4.60
2023-02-27T00:19:03.462Z,4.60
2023-02-27T00:21:32.552Z,5.50
2023-02-27T00:24:00.104Z,4.50
2023-02-27T00:26:27.939Z,5.30
2023-02-27T00:28:55.507Z,5.40
2023-02-27T00:31:23.194Z,5.20
2023-02-27T00:33:50.745Z,4.70
2023-02-27T00:36:18.298Z,5.00
2023-02-27T00:38:45.845Z,4.80
2023-02-27T00:41:13.439Z,5.40
2023-02-27T00:43:40.993Z,5.10
2023-02-27T00:46:08.670Z,4.90
2023-02-27T00:48:36.517Z,6.00
2023-02-27T00:51:04.528Z,5.90
2023-02-27T00:53:32.102Z,5.50
2023-02-27T00:55:59.621Z,5.30
2023-02-27T00:58:27.149Z,4.70
2023-02-27T01:00:54.827Z,5.90
2023-02-27T01:03:22.408Z,5.60
2023-02-27T01:05:51.146Z,4.90
2023-02-27T01:08:18.675Z,5.40
2023-02-27T01:10:46.727Z,4.70
2023-02-27T01:13:14.243Z,4.50
2023-02-27T01:15:41.813Z,4.50
2023-02-27T01:18:09.413Z,4.90
2023-02-27T01:20:37.176Z,4.80
2023-02-27T01:23:04.694Z,3.90
2023-02-27T01:25:32.260Z,4.60
2023-02-27T01:28:00.304Z,4.00
2023-02-27T01:30:28.168Z,4.00
2023-02-27T01:32:55.761Z,3.90
2023-02-27T01:35:23.354Z,3.50
2023-02-27T01:37:50.869Z,4.00
2023-02-27T01:40:18.748Z,3.80
2023-02-27T01:42:46.283Z,3.20
2023-02-27T01:45:33.873Z,3.70
2023-02-27T01:48:28.708Z,3.50
2023-02-27T01:51:02.271Z,3.20
2023-02-27T01:53:32.694Z,3.40
2023-02-27T01:56:05.351Z,3.10
2023-02-27T01:58:33.645Z,3.30
2023-02-27T02:01:01.329Z,2.80
2023-02-27T02:03:36.913Z,2.90
2023-02-27T02:06:06.515Z,2.70
2023-02-27T02:08:44.694Z,2.70
2023-02-27T02:11:14.096Z,3.20
2023-02-27T02:13:42.344Z,1.90
2023-02-27T02:16:24.248Z,2.00
2023-02-27T02:19:10.046Z,2.00
2023-02-27T02:22:08.671Z,2.40
2023-02-27T02:24:54.170Z,2.10
2023-02-27T02:27:30.647Z,2.10
2023-02-27T02:30:21.634Z,2.30
2023-02-27T02:33:29.064Z,1.80
2023-02-27T02:36:28.968Z,2.60
2023-02-27T02:39:08.491Z,1.90
2023-02-27T02:41:54.389Z,1.70
2023-02-27T02:44:59.812Z,2.10
2023-02-27T02:47:51.421Z,2.00
2023-02-27T02:50:36.353Z,2.20
2023-02-27T02:53:14.557Z,2.40
2023-02-27T02:56:20.994Z,2.20
2023-02-27T02:59:17.727Z,2.00
2023-02-27T03:02:01.259Z,2.10
2023-02-27T03:04:38.140Z,2.40
2023-02-27T03:07:14.749Z,2.50
2023-02-27T03:12:35.531Z,2.60
2023-02-27T03:15:11.115Z,3.20
2023-02-27T03:17:55.304Z,3.20
2023-02-27T03:20:31.453Z,3.20
2023-02-27T03:23:05.054Z,3.00
2023-02-27T03:25:34.538Z,3.20
2023-02-27T03:28:10.669Z,3.70
2023-02-27T03:30:54.691Z,3.70
2023-02-27T03:33:28.835Z,4.40
2023-02-27T03:36:08.268Z,3.60
2023-02-27T03:39:14.573Z,4.00
2023-02-27T03:41:57.431Z,4.30
2023-02-27T03:44:43.889Z,3.90
2023-02-27T03:47:11.600Z,3.70
2023-02-27T03:49:39.233Z,3.70
2023-02-27T03:52:06.912Z,4.30
2023-02-27T03:54:45.752Z,3.80
2023-02-27T03:57:13.271Z,4.00
2023-02-27T03:59:41.547Z,4.20
2023-02-27T04:02:09.466Z,4.30
2023-02-27T04:04:37.030Z,4.90
2023-02-27T04:07:29.391Z,3.50
2023-02-27T04:09:56.923Z,3.80
2023-02-27T04:12:52.880Z,4.10
2023-02-27T04:15:42.158Z,3.90
2023-02-27T04:18:33.491Z,4.30
2023-02-27T04:21:09.940Z,4.20
2023-02-27T04:23:53.468Z,4.10
2023-02-27T04:26:52.710Z,3.90
2023-02-27T04:29:28.743Z,4.90
2023-02-27T04:32:13.468Z,4.80
2023-02-27T04:34:48.348Z,5.30
2023-02-27T04:37:35.640Z,5.40
2023-02-27T04:40:11.199Z,4.50
2023-02-27T04:42:44.810Z,4.50
2023-02-27T04:45:16.745Z,5.40
2023-02-27T04:47:51.542Z,6.00
2023-02-27T04:50:25.640Z,4.70
2023-02-27T04:52:59.926Z,4.70
2023-02-27T04:55:33.271Z,4.40
2023-02-27T04:58:09.222Z,4.10
2023-02-27T05:00:40.034Z,3.40
2023-02-27T05:03:30.532Z,3.50
2023-02-27T05:06:00.663Z,3.50
2023-02-27T05:08:28.227Z,3.20
2023-02-27T05:11:07.652Z,3.00
2023-02-27T05:13:43.481Z,3.50
2023-02-27T05:16:20.300Z,4.30
2023-02-27T05:18:48.992Z,3.90
2023-02-27T05:21:35.611Z,3.70
2023-02-27T05:24:06.113Z,3.50
2023-02-27T05:29:36.110Z,3.50
2023-02-27T05:32:25.349Z,3.10
2023-02-27T05:35:01.974Z,4.50
2023-02-27T05:37:43.335Z,4.50
2023-02-27T05:40:15.384Z,4.30
2023-02-27T05:42:55.350Z,5.20
2023-02-27T05:45:27.562Z,5.10
2023-02-27T05:48:05.689Z,4.40
2023-02-27T05:50:35.132Z,5.70
2023-02-27T05:53:06.960Z,4.50
2023-02-27T05:55:39.194Z,5.40
2023-02-27T05:58:39.097Z,5.20
2023-02-27T06:01:08.765Z,4.20
2023-02-27T06:03:39.862Z,3.90
2023-02-27T06:06:12.238Z,3.70
2023-02-27T06:08:39.911Z,3.20
2023-02-27T06:11:07.653Z,3.40
2023-02-27T06:13:35.171Z,4.10
2023-02-27T06:16:02.843Z,3.40
2023-02-27T06:18:30.435Z,3.50
2023-02-27T06:20:58.070Z,3.70
2023-02-27T06:23:25.651Z,3.40
2023-02-27T06:25:53.208Z,3.70
2023-02-27T06:28:20.771Z,4.20
2023-02-27T06:30:52.373Z,4.30
2023-02-27T06:33:19.914Z,4.20
2023-02-27T06:35:48.560Z,3.80
2023-02-27T06:38:16.125Z,3.90
2023-02-27T06:40:43.878Z,4.10
2023-02-27T06:43:11.404Z,4.20
2023-02-27T06:45:39.087Z,4.10
2023-02-27T06:48:06.727Z,4.40
2023-02-27T06:50:34.254Z,3.50
2023-02-27T06:53:01.768Z,4.30
2023-02-27T06:55:29.302Z,4.30
2023-02-27T06:57:56.862Z,4.80
2023-02-27T07:00:24.454Z,4.30
2023-02-27T07:02:52.037Z,4.70
2023-02-27T07:05:19.633Z,4.80
2023-02-27T07:07:47.382Z,4.40
2023-02-27T07:10:14.920Z,4.20
2023-02-27T07:12:42.458Z,4.10
2023-02-27T07:15:10.779Z,4.20
2023-02-27T07:17:38.466Z,4.10
2023-02-27T07:20:07.755Z,4.40
2023-02-27T07:22:35.320Z,5.30
2023-02-27T07:25:03.404Z,5.30
2023-02-27T07:27:31.469Z,5.00
2023-02-27T07:29:59.246Z,4.40
2023-02-27T07:32:27.563Z,4.50
2023-02-27T07:34:55.136Z,4.80
2023-02-27T07:37:22.710Z,5.00
2023-02-27T07:39:50.217Z,4.50
2023-02-27T07:42:17.742Z,4.40
2023-02-27T07:44:45.271Z,4.80
2023-02-27T07:47:12.845Z,4.40
2023-02-27T07:49:40.506Z,4.50
2023-02-27T07:52:08.076Z,4.70
2023-02-27T07:54:35.851Z,5.80
2023-02-27T07:57:04.925Z,4.90
2023-02-27T07:59:33.015Z,4.40
2023-02-27T08:02:00.550Z,4.80
2023-02-27T08:04:28.122Z,5.00
2023-02-27T08:06:55.699Z,4.70
2023-02-27T08:09:23.304Z,4.10
2023-02-27T08:11:50.823Z,4.90
2023-02-27T08:14:18.337Z,4.40
2023-02-27T08:16:45.913Z,5.10
2023-02-27T08:19:14.420Z,7.20
2023-02-27T08:21:42.012Z,6.00
2023-02-27T08:24:09.615Z,6.70
2023-02-27T08:26:37.481Z,6.50
2023-02-27T08:29:05.214Z,4.60
2023-02-27T08:31:32.838Z,6.40
2023-02-27T08:34:09.917Z,5.80
2023-02-27T08:36:38.859Z,6.60
2023-02-27T08:39:07.990Z,6.80
2023-02-27T08:41:35.890Z,7.10
2023-02-27T08:44:03.696Z,7.20
2023-02-27T08:46:31.450Z,4.70
2023-02-27T08:48:59.095Z,5.40
2023-02-27T08:51:26.977Z,5.20
2023-02-27T08:53:54.758Z,4.70
2023-02-27T08:56:22.311Z,7.70
2023-02-27T08:58:49.816Z,6.70
2023-02-27T09:01:17.909Z,5.80
2023-02-27T09:03:45.620Z,4.60
2023-02-27T09:06:13.638Z,5.70
2023-02-27T09:08:41.157Z,5.50
2023-02-27T09:11:08.745Z,6.80
2023-02-27T09:13:36.311Z,7.60
2023-02-27T09:16:04.038Z,7.20
2023-02-27T09:18:31.631Z,5.30
2023-02-27T09:20:59.968Z,6.20
2023-02-27T09:23:27.538Z,5.80
2023-02-27T09:25:55.048Z,7.60
2023-02-27T09:28:22.605Z,5.90
2023-02-27T09:30:50.169Z,3.90
2023-02-27T09:33:17.732Z,3.90
2023-02-27T09:35:45.248Z,3.30
2023-02-27T09:38:12.837Z,3.10
2023-02-27T09:40:43.373Z,3.80
2023-02-27T09:45:46.883Z,5.70
2023-02-27T09:50:48.641Z,4.40
2023-02-27T09:53:27.209Z,4.70
2023-02-27T09:56:01.759Z,4.40
2023-02-27T09:58:40.492Z,4.50
2023-02-27T10:01:40.611Z,4.60
2023-02-27T10:04:34.223Z,5.20
2023-02-27T10:07:26.209Z,5.50
2023-02-27T10:10:02.612Z,5.10
2023-02-27T10:15:17.434Z,4.70
2023-02-27T10:17:51.168Z,5.00
2023-02-27T10:20:43.775Z,3.80
2023-02-27T10:23:18.745Z,3.90
2023-02-27T10:25:51.788Z,3.10
2023-02-27T10:28:21.829Z,3.50
2023-02-27T10:30:53.019Z,3.50
2023-02-27T10:33:29.589Z,2.90
2023-02-27T10:35:57.192Z,3.00
2023-02-27T10:38:34.036Z,2.50
2023-02-27T10:41:03.515Z,2.70
2023-02-27T10:43:31.140Z,2.90
2023-02-27T10:46:03.720Z,1.90
2023-02-27T10:48:34.131Z,1.90
2023-02-27T10:51:24.555Z,1.30
2023-02-27T10:54:12.186Z,1.60
2023-02-27T10:56:40.029Z,1.40
2023-02-27T10:59:21.896Z,2.10
2023-02-27T11:01:54.363Z,2.00
2023-02-27T11:04:46.117Z,2.20
2023-02-27T11:07:14.104Z,2.30
2023-02-27T11:09:41.642Z,2.50
2023-02-27T11:12:28.742Z,2.30
2023-02-27T11:14:59.087Z,1.90
2023-02-27T11:17:32.654Z,2.70
2023-02-27T11:20:02.289Z,2.10
2023-02-27T11:22:31.593Z,2.70
2023-02-27T11:25:18.577Z,2.90
2023-02-27T11:27:47.037Z,3.30
2023-02-27T11:30:25.498Z,2.60
2023-02-27T11:32:56.659Z,3.20
2023-02-27T11:35:26.353Z,2.60
2023-02-27T11:37:56.905Z,2.90
2023-02-27T11:40:31.414Z,2.10
2023-02-27T11:43:05.047Z,1.80
2023-02-27T11:46:08.047Z,2.20
2023-02-27T11:48:47.259Z,2.00
2023-02-27T11:51:54.489Z,1.90
2023-02-27T11:54:40.814Z,1.90
2023-02-27T11:57:38.311Z,2.00
2023-02-27T12:00:20.529Z,2.40
2023-02-27T12:02:53.740Z,2.30
2023-02-27T12:05:29.720Z,2.40
2023-02-27T12:08:02.557Z,2.80
2023-02-27T12:10:37.493Z,1.90
2023-02-27T12:13:17.111Z,2.30
2023-02-27T12:15:50.659Z,2.20
2023-02-27T12:18:34.099Z,2.30
2023-02-27T12:21:06.867Z,2.00
2023-02-27T12:23:41.536Z,2.10
2023-02-27T12:26:24.737Z,2.30
2023-02-27T12:29:17.632Z,2.30
2023-02-27T12:31:52.924Z,2.30
2023-02-27T12:34:28.643Z,2.30
2023-02-27T12:37:04.261Z,2.50
2023-02-27T12:39:32.634Z,2.60
2023-02-27T12:42:32.570Z,2.40
2023-02-27T12:45:09.444Z,3.20
2023-02-27T12:47:42.820Z,3.20
2023-02-27T12:50:16.854Z,3.40
2023-02-27T12:53:13.339Z,3.30
2023-02-27T12:55:50.095Z,2.90
2023-02-27T12:58:46.348Z,2.70
2023-02-27T13:01:26.455Z,2.90
2023-02-27T13:04:15.118Z,3.70
2023-02-27T13:06:52.906Z,3.20
2023-02-27T13:09:33.542Z,3.00
2023-02-27T13:12:15.037Z,3.00
2023-02-27T13:14:49.688Z,2.50
2023-02-27T13:17:39.550Z,2.70
2023-02-27T13:20:22.333Z,2.60
2023-02-27T13:23:27.767Z,2.70
2023-02-27T13:25:58.953Z,2.40
2023-02-27T13:28:29.205Z,2.40
2023-02-27T13:31:39.470Z,2.30
2023-02-27T13:34:31.204Z,2.20
2023-02-27T13:37:09.400Z,2.20
2023-02-27T13:39:51.498Z,1.90
2023-02-27T13:42:28.307Z,2.30
2023-02-27T13:45:00.876Z,2.60
2023-02-27T13:47:28.400Z,2.60
2023-02-27T13:50:22.814Z,2.60
2023-02-27T13:52:51.149Z,3.30
2023-02-27T13:55:28.413Z,3.10
2023-02-27T13:57:58.428Z,3.10
2023-02-27T14:00:28.811Z,2.70
2023-02-27T14:03:20.205Z,2.70
2023-02-27T14:05:51.528Z,2.50
2023-02-27T14:08:32.379Z,2.20
2023-02-27T14:11:27.938Z,2.50
2023-02-27T14:13:55.588Z,2.40
2023-02-27T14:16:38.422Z,2.80
2023-02-27T14:19:21.011Z,3.00
2023-02-27T14:22:02.484Z,3.50
2023-02-27T14:24:49.575Z,3.00
2023-02-27T14:27:52.532Z,2.90
2023-02-27T14:30:34.497Z,2.30
2023-02-27T14:33:33.324Z,2.40
2023-02-27T14:36:09.415Z,3.20
2023-02-27T14:38:38.393Z,2.90
2023-02-27T14:41:10.678Z,3.60
2023-02-27T14:43:42.838Z,3.20
2023-02-27T14:46:24.392Z,3.40
2023-02-27T14:49:35.328Z,3.90
2023-02-27T14:52:24.612Z,3.00
2023-02-27T14:54:52.959Z,3.20
2023-02-27T14:57:26.764Z,3.90
2023-02-27T14:59:54.609Z,3.30
2023-02-27T15:02:25.566Z,3.50
2023-02-27T15:05:02.004Z,3.70
2023-02-27T15:10:04.197Z,3.30
2023-02-27T15:12:37.342Z,3.80
2023-02-27T15:15:06.900Z,3.20
2023-02-27T15:17:43.642Z,3.30
2023-02-27T15:20:30.741Z,3.10
2023-02-27T15:23:20.844Z,3.10
2023-02-27T15:25:48.460Z,3.10
2023-02-27T15:28:26.277Z,3.00
2023-02-27T15:30:56.270Z,3.40
2023-02-27T15:33:28.463Z,2.70
2023-02-27T15:35:57.053Z,2.80
2023-02-27T15:38:30.711Z,3.00
2023-02-27T15:41:00.430Z,3.60
2023-02-27T15:43:29.448Z,2.80
2023-02-27T15:45:57.865Z,3.40
2023-02-27T15:48:28.146Z,4.30
2023-02-27T15:51:01.949Z,3.90
2023-02-27T15:53:30.955Z,3.20
2023-02-27T15:56:01.885Z,3.20
2023-02-27T15:58:33.464Z,3.20
2023-02-27T16:01:19.096Z,3.90
2023-02-27T16:03:49.097Z,3.50
2023-02-27T16:06:21.798Z,3.60
2023-02-27T16:08:58.722Z,2.90
2023-02-27T16:11:34.831Z,2.90
2023-02-27T16:14:03.656Z,3.50
2023-02-27T16:16:38.075Z,3.70
2023-02-27T16:19:25.154Z,3.90
2023-02-27T16:22:13.806Z,3.00
2023-02-27T16:24:41.764Z,4.30
2023-02-27T16:27:27.025Z,3.70
2023-02-27T16:29:57.691Z,3.50
2023-02-27T16:32:32.150Z,3.70
2023-02-27T16:35:03.737Z,3.90
2023-02-27T16:37:39.450Z,3.60
2023-02-27T16:40:14.749Z,3.80
2023-02-27T16:42:43.366Z,4.00
2023-02-27T16:45:16.718Z,3.90
2023-02-27T16:47:45.282Z,3.70
2023-02-27T16:50:21.826Z,3.70
2023-02-27T16:52:49.390Z,3.90
2023-02-27T16:55:17.065Z,3.80
2023-02-27T16:57:44.672Z,3.80
2023-02-27T17:00:14.600Z,4.80
2023-02-27T17:02:42.200Z,4.40
2023-02-27T17:05:10.973Z,4.70
2023-02-27T17:07:38.825Z,3.80
2023-02-27T17:10:07.002Z,4.80
2023-02-27T17:12:34.693Z,4.40
2023-02-27T17:15:02.303Z,5.60
2023-02-27T17:17:29.819Z,4.40
2023-02-27T17:19:57.374Z,4.00
2023-02-27T17:22:24.923Z,4.30
2023-02-27T17:24:52.533Z,4.30
2023-02-27T17:27:20.156Z,5.20
2023-02-27T17:29:47.711Z,4.90
2023-02-27T17:32:15.306Z,5.60
2023-02-27T17:34:42.841Z,4.80
2023-02-27T17:37:10.532Z,5.10
2023-02-27T17:39:38.518Z,5.00
2023-02-27T17:42:06.045Z,4.70
2023-02-27T17:44:33.610Z,5.90
2023-02-27T17:47:01.133Z,6.80
2023-02-27T17:49:28.642Z,8.20
2023-02-27T17:51:56.216Z,7.00
2023-02-27T17:54:23.947Z,6.10
2023-02-27T17:56:51.684Z,4.40
2023-02-27T17:59:19.320Z,5.00
2023-02-27T18:01:47.054Z,4.50
2023-02-27T18:04:14.744Z,3.90
2023-02-27T18:06:42.282Z,4.90
2023-02-27T18:09:10.850Z,4.30
2023-02-27T18:11:38.456Z,4.80
2023-02-27T18:14:06.235Z,4.60
2023-02-27T18:16:34.323Z,4.40
2023-02-27T18:19:03.858Z,5.00
2023-02-27T18:21:32.635Z,5.10
2023-02-27T18:24:00.581Z,4.80
2023-02-27T18:26:31.232Z,5.30
2023-02-27T18:29:05.821Z,4.80
2023-02-27T18:31:45.174Z,5.00
2023-02-27T18:34:13.369Z,5.50
2023-02-27T18:36:41.885Z,5.00
2023-02-27T18:39:10.318Z,4.90
2023-02-27T18:41:38.863Z,4.90
2023-02-27T18:44:07.952Z,5.80
2023-02-27T18:46:37.462Z,6.00
2023-02-27T18:49:05.108Z,6.50
2023-02-27T18:51:32.677Z,6.70
2023-02-27T18:54:00.345Z,6.20
2023-02-27T18:56:28.511Z,5.80
2023-02-27T18:58:57.734Z,4.70
2023-02-27T19:01:30.134Z,4.30
2023-02-27T19:03:59.591Z,5.30
2023-02-27T19:06:28.003Z,5.60
2023-02-27T19:08:55.834Z,5.30
2023-02-27T19:11:24.703Z,4.50
2023-02-27T19:13:52.555Z,4.20
2023-02-27T19:16:20.348Z,4.60
2023-02-27T19:18:47.985Z,4.70
2023-02-27T19:21:15.743Z,5.00
2023-02-27T19:23:43.394Z,4.80
2023-02-27T19:26:11.350Z,4.30
2023-02-27T19:28:39.106Z,5.10
2023-02-27T19:31:09.347Z,4.80
2023-02-27T19:33:37.054Z,4.40
2023-02-27T19:36:06.511Z,5.20
2023-02-27T19:38:34.156Z,5.60
2023-02-27T19:41:03.338Z,6.10
2023-02-27T19:43:31.108Z,4.60
2023-02-27T19:45:58.657Z,5.00
2023-02-27T19:48:26.286Z,4.90
2023-02-27T19:50:53.873Z,4.20
2023-02-27T19:53:21.383Z,4.40
2023-02-27T19:56:00.817Z,5.30
2023-02-27T19:58:29.092Z,5.70
2023-02-27T20:00:56.896Z,5.80
2023-02-27T20:03:24.534Z,5.70
2023-02-27T20:05:52.103Z,6.00
2023-02-27T20:08:19.640Z,5.30
2023-02-27T20:10:55.050Z,5.30
2023-02-27T20:13:23.119Z,4.80
2023-02-27T20:16:03.122Z,4.70
2023-02-27T20:18:32.010Z,4.50
2023-02-27T20:21:00.527Z,4.80
2023-02-27T20:23:28.202Z,4.60
2023-02-27T20:25:55.728Z,4.10
2023-02-27T20:28:23.645Z,4.20
2023-02-27T20:30:51.382Z,3.90
2023-02-27T20:33:18.946Z,4.30
2023-02-27T20:35:46.587Z,4.60
2023-02-27T20:38:14.362Z,4.40
2023-02-27T20:40:42.094Z,4.80
2023-02-27T20:43:09.638Z,4.10
2023-02-27T20:45:40.408Z,3.80
2023-02-27T20:48:08.046Z,4.40
2023-02-27T20:50:35.619Z,5.00
2023-02-27T20:53:03.150Z,5.00
2023-02-27T20:55:30.700Z,6.20
2023-02-27T20:57:59.826Z,4.80
2023-02-27T21:00:27.489Z,5.20
2023-02-27T21:02:55.086Z,6.30
2023-02-27T21:05:22.652Z,5.70
2023-02-27T21:07:50.256Z,4.30
2023-02-27T21:10:18.069Z,5.80
2023-02-27T21:12:45.604Z,5.20
2023-02-27T21:15:13.592Z,4.70
2023-02-27T21:17:41.202Z,4.30
2023-02-27T21:20:09.509Z,4.10
2023-02-27T21:22:37.039Z,4.50
2023-02-27T21:25:04.879Z,5.10
2023-02-27T21:27:32.444Z,4.20
2023-02-27T21:29:59.999Z,4.30
2023-02-27T21:32:27.617Z,4.80
2023-02-27T21:34:55.153Z,5.00
2023-02-27T21:37:22.685Z,6.70
2023-02-27T21:39:50.253Z,5.50
2023-02-27T21:42:18.533Z,7.00
2023-02-27T21:44:46.151Z,6.20
2023-02-27T21:47:13.777Z,5.40
2023-02-27T21:49:41.346Z,5.90
2023-02-27T21:52:08.898Z,5.80
2023-02-27T21:54:37.054Z,4.70
2023-02-27T21:57:05.034Z,4.80
2023-02-27T21:59:32.586Z,3.70
2023-02-27T22:02:00.226Z,3.10
2023-02-27T22:04:27.809Z,3.20
2023-02-27T22:06:55.389Z,3.80
2023-02-27T22:09:22.926Z,4.60
2023-02-27T22:11:50.560Z,5.00
2023-02-27T22:14:18.581Z,3.90
2023-02-27T22:16:46.220Z,4.80
2023-02-27T22:19:16.041Z,5.00
2023-02-27T22:21:43.580Z,5.00
2023-02-27T22:24:11.640Z,5.10
2023-02-27T22:26:39.359Z,4.80
2023-02-27T22:29:07.406Z,4.60
2023-02-27T22:31:37.365Z,4.60
2023-02-27T22:34:07.918Z,5.50
2023-02-27T22:39:04.889Z,5.80
2023-02-27T22:41:35.857Z,6.80
2023-02-27T22:44:04.224Z,6.60
2023-02-27T22:46:35.209Z,7.40
2023-02-27T22:49:10.041Z,8.00
2023-02-27T22:51:37.817Z,7.50
2023-02-27T22:54:06.747Z,6.40
2023-02-27T22:56:34.945Z,6.90
2023-02-27T22:59:03.802Z,7.00
2023-02-27T23:01:33.437Z,7.10
2023-02-27T23:04:04.028Z,7.50
2023-02-27T23:09:01.287Z,6.00
2023-02-27T23:11:29.195Z,6.00
2023-02-27T23:13:57.088Z,6.70
2023-02-27T23:16:25.979Z,6.40
2023-02-27T23:18:56.410Z,6.20
2023-02-27T23:21:30.185Z,6.80
2023-02-27T23:23:58.018Z,6.50
2023-02-27T23:26:25.855Z,6.00
2023-02-27T23:28:53.460Z,5.50
2023-02-27T23:31:21.107Z,6.20
2023-02-27T23:33:48.682Z,6.20
2023-02-27T23:36:17.160Z,6.00
2023-02-27T23:38:44.732Z,6.00
2023-02-27T23:41:12.776Z,6.20
2023-02-27T23:43:40.458Z,6.80
2023-02-27T23:46:10.201Z,6.60
2023-02-27T23:48:38.206Z,6.90
2023-02-27T23:51:07.001Z,8.30
2023-02-27T23:53:35.690Z,6.50
2023-02-27T23:56:21.040Z,7.00
2023-02-27T23:58:56.585Z,6.70
